CFG2LV LGSK-EDJA
Flight info
| Callsign | CFG2LV |
|---|---|
| Flight time | 1h 59m |
| Altitude | 36000 |
| Route | DCT TSL UN130 TALAS DCT MAVAR DCT AKIKA DCT NILKU DCT ETOBI DCT NEMEK DCT VEKEN DCT ERKIR L608 KPT KPT1D |
| Aircraft | A320/M-SDE3FGHIRWY/LB1 |
Departure
| Time | 2026-04-24 12:15 |
|---|---|
| Airport | Skiathos Island National Airport (LGSK) |
Arrival
| Time | 2026-04-24 14:15 |
|---|---|
| Airport | Memmingen Allgau Airport (EDJA) |
| Time | Latitude | Longitude | Altitude | Speed | Heading |
|---|---|---|---|---|---|
| 2026-04-24 11:58 | 39.17910 | 23.50234 | 39 ft | 0 kts | 289° |
| 2026-04-24 12:08 | 39.17909 | 23.50237 | 39 ft | 3 kts | 288° |
| 2026-04-24 12:08 | 39.17902 | 23.50270 | 38 ft | 4 kts | 281° |
| 2026-04-24 12:08 | 39.17900 | 23.50304 | 39 ft | 4 kts | 263° |
| 2026-04-24 12:09 | 39.17908 | 23.50332 | 34 ft | 4 kts | 212° |
| 2026-04-24 12:09 | 39.17913 | 23.50337 | 38 ft | 0 kts | 199° |
| 2026-04-24 12:11 | 39.17876 | 23.50320 | 40 ft | 4 kts | 199° |
| 2026-04-24 12:11 | 39.17851 | 23.50309 | 39 ft | 4 kts | 199° |
| 2026-04-24 12:11 | 39.17828 | 23.50299 | 39 ft | 4 kts | 199° |
| 2026-04-24 12:11 | 39.17795 | 23.50284 | 39 ft | 10 kts | 199° |
| 2026-04-24 12:12 | 39.17686 | 23.50248 | 39 ft | 22 kts | 196° |
| 2026-04-24 12:12 | 39.17549 | 23.50250 | 39 ft | 19 kts | 137° |
| 2026-04-24 12:12 | 39.17445 | 23.50250 | 38 ft | 15 kts | 198° |
| 2026-04-24 12:12 | 39.17339 | 23.50202 | 32 ft | 18 kts | 199° |
| 2026-04-24 12:13 | 39.17212 | 23.50143 | 23 ft | 21 kts | 200° |
| 2026-04-24 12:13 | 39.17087 | 23.50083 | 18 ft | 15 kts | 211° |
| 2026-04-24 12:13 | 39.17025 | 23.50078 | 11 ft | 9 kts | 35° |
| 2026-04-24 12:13 | 39.17087 | 23.50091 | 18 ft | 0 kts | 20° |
| 2026-04-24 12:14 | 39.17261 | 23.50168 | 26 ft | 66 kts | 19° |
| 2026-04-24 12:14 | 39.17937 | 23.50465 | 45 ft | 137 kts | 19° |
| 2026-04-24 12:15 | 39.18949 | 23.50906 | 513 ft | 154 kts | 19° |
| 2026-04-24 12:15 | 39.19942 | 23.51333 | 1427 ft | 148 kts | 16° |
| 2026-04-24 12:15 | 39.20907 | 23.51765 | 2251 ft | 144 kts | 16° |
| 2026-04-24 12:15 | 39.21870 | 23.52197 | 2669 ft | 154 kts | 16° |
| 2026-04-24 12:16 | 39.22950 | 23.52676 | 2895 ft | 176 kts | 17° |
| 2026-04-24 12:16 | 39.24185 | 23.53223 | 3105 ft | 199 kts | 16° |
| 2026-04-24 12:16 | 39.25578 | 23.53841 | 3310 ft | 224 kts | 15° |
| 2026-04-24 12:16 | 39.27133 | 23.54530 | 3655 ft | 247 kts | 18° |
| 2026-04-24 12:17 | 39.28848 | 23.54982 | 4250 ft | 257 kts | 355° |
| 2026-04-24 12:17 | 39.30604 | 23.54484 | 5067 ft | 260 kts | 343° |
| 2026-04-24 12:17 | 39.32352 | 23.53823 | 5919 ft | 262 kts | 342° |
| 2026-04-24 12:17 | 39.34096 | 23.53149 | 6807 ft | 263 kts | 342° |
| 2026-04-24 12:18 | 39.35856 | 23.52465 | 7580 ft | 266 kts | 343° |
| 2026-04-24 12:18 | 39.37637 | 23.51770 | 8389 ft | 270 kts | 343° |
| 2026-04-24 12:18 | 39.39448 | 23.51068 | 9148 ft | 274 kts | 343° |
| 2026-04-24 12:18 | 39.41287 | 23.50361 | 9960 ft | 276 kts | 344° |
| 2026-04-24 12:19 | 39.43149 | 23.49584 | 10420 ft | 291 kts | 342° |
| 2026-04-24 12:19 | 39.45129 | 23.48654 | 10598 ft | 314 kts | 341° |
| 2026-04-24 12:19 | 39.47249 | 23.47609 | 10730 ft | 337 kts | 340° |
| 2026-04-24 12:19 | 39.49503 | 23.46484 | 10976 ft | 354 kts | 340° |
| 2026-04-24 12:20 | 39.51834 | 23.45324 | 11475 ft | 362 kts | 340° |
| 2026-04-24 12:20 | 39.54204 | 23.44153 | 12080 ft | 367 kts | 341° |
| 2026-04-24 12:20 | 39.56611 | 23.42975 | 12534 ft | 373 kts | 341° |
| 2026-04-24 12:20 | 39.59041 | 23.41793 | 12521 ft | 372 kts | 341° |
| 2026-04-24 12:21 | 39.61475 | 23.40612 | 12810 ft | 375 kts | 341° |
| 2026-04-24 12:21 | 39.63927 | 23.39420 | 13494 ft | 378 kts | 342° |
| 2026-04-24 12:21 | 39.66404 | 23.38219 | 14086 ft | 382 kts | 342° |
| 2026-04-24 12:21 | 39.68902 | 23.37006 | 14662 ft | 385 kts | 342° |
| 2026-04-24 12:22 | 39.71415 | 23.35781 | 15246 ft | 387 kts | 342° |
| 2026-04-24 12:22 | 39.73943 | 23.34543 | 15835 ft | 389 kts | 341° |
| 2026-04-24 12:22 | 39.76483 | 23.33297 | 16417 ft | 392 kts | 341° |
| 2026-04-24 12:22 | 39.79040 | 23.32046 | 16999 ft | 394 kts | 341° |
| 2026-04-24 12:23 | 39.81612 | 23.30791 | 17580 ft | 396 kts | 341° |
| 2026-04-24 12:23 | 39.84200 | 23.29524 | 18140 ft | 399 kts | 341° |
| 2026-04-24 12:23 | 39.86803 | 23.28245 | 18630 ft | 401 kts | 341° |
| 2026-04-24 12:23 | 39.89423 | 23.26958 | 19083 ft | 404 kts | 341° |
| 2026-04-24 12:24 | 39.92063 | 23.25660 | 19526 ft | 407 kts | 341° |
| 2026-04-24 12:24 | 39.94718 | 23.24355 | 19965 ft | 409 kts | 341° |
| 2026-04-24 12:24 | 39.97387 | 23.23043 | 20390 ft | 412 kts | 341° |
| 2026-04-24 12:24 | 40.00076 | 23.21721 | 20810 ft | 414 kts | 341° |
| 2026-04-24 12:25 | 40.02783 | 23.20390 | 21201 ft | 417 kts | 341° |
| 2026-04-24 12:25 | 40.05507 | 23.19054 | 21596 ft | 420 kts | 341° |
| 2026-04-24 12:25 | 40.08251 | 23.17707 | 21973 ft | 422 kts | 341° |
| 2026-04-24 12:25 | 40.11005 | 23.16352 | 22349 ft | 425 kts | 341° |
| 2026-04-24 12:26 | 40.13775 | 23.14985 | 22713 ft | 427 kts | 341° |
| 2026-04-24 12:26 | 40.16562 | 23.13606 | 23064 ft | 429 kts | 341° |
| 2026-04-24 12:26 | 40.19362 | 23.12215 | 23414 ft | 432 kts | 341° |
| 2026-04-24 12:26 | 40.22181 | 23.10816 | 23728 ft | 434 kts | 341° |
| 2026-04-24 12:27 | 40.25006 | 23.09413 | 24044 ft | 435 kts | 341° |
| 2026-04-24 12:27 | 40.27838 | 23.08007 | 24357 ft | 436 kts | 341° |
| 2026-04-24 12:27 | 40.30677 | 23.06596 | 24655 ft | 437 kts | 341° |
| 2026-04-24 12:27 | 40.33525 | 23.05177 | 24944 ft | 439 kts | 341° |
| 2026-04-24 12:28 | 40.36380 | 23.03755 | 25224 ft | 440 kts | 341° |
| 2026-04-24 12:28 | 40.39246 | 23.02327 | 25496 ft | 441 kts | 341° |
| 2026-04-24 12:28 | 40.42098 | 23.00815 | 25756 ft | 444 kts | 336° |
| 2026-04-24 12:28 | 40.44780 | 22.98761 | 26006 ft | 449 kts | 327° |
| 2026-04-24 12:29 | 40.47196 | 22.96135 | 26247 ft | 454 kts | 318° |
| 2026-04-24 12:29 | 40.49285 | 22.92989 | 26481 ft | 459 kts | 310° |
| 2026-04-24 12:29 | 40.51234 | 22.89657 | 26714 ft | 461 kts | 310° |
| 2026-04-24 12:29 | 40.52527 | 22.87444 | 26869 ft | 462 kts | 310° |
| 2026-04-24 12:30 | 40.54481 | 22.84092 | 27070 ft | 463 kts | 310° |
| 2026-04-24 12:30 | 40.56443 | 22.80727 | 27302 ft | 463 kts | 310° |
| 2026-04-24 12:30 | 40.58402 | 22.77370 | 27591 ft | 463 kts | 311° |
| 2026-04-24 12:30 | 40.60993 | 22.72924 | 27974 ft | 462 kts | 311° |
| 2026-04-24 12:31 | 40.62947 | 22.69567 | 28263 ft | 462 kts | 311° |
| 2026-04-24 12:31 | 40.64266 | 22.67300 | 28460 ft | 461 kts | 311° |
| 2026-04-24 12:31 | 40.66213 | 22.63946 | 28761 ft | 461 kts | 311° |
| 2026-04-24 12:31 | 40.68158 | 22.60591 | 29069 ft | 460 kts | 311° |
| 2026-04-24 12:32 | 40.70097 | 22.57243 | 29376 ft | 460 kts | 311° |
| 2026-04-24 12:32 | 40.72034 | 22.53891 | 29680 ft | 459 kts | 311° |
| 2026-04-24 12:32 | 40.73966 | 22.50545 | 29993 ft | 458 kts | 311° |
| 2026-04-24 12:32 | 40.75896 | 22.47204 | 30271 ft | 458 kts | 311° |
| 2026-04-24 12:33 | 40.77824 | 22.43865 | 30512 ft | 457 kts | 311° |
| 2026-04-24 12:33 | 40.79758 | 22.40520 | 30658 ft | 460 kts | 312° |
| 2026-04-24 12:33 | 40.81701 | 22.37155 | 30839 ft | 461 kts | 312° |
| 2026-04-24 12:33 | 40.83641 | 22.33783 | 31079 ft | 461 kts | 312° |
| 2026-04-24 12:34 | 40.85551 | 22.30454 | 31336 ft | 461 kts | 312° |
| 2026-04-24 12:34 | 40.87480 | 22.27084 | 31591 ft | 460 kts | 311° |
| 2026-04-24 12:34 | 40.89410 | 22.23712 | 31830 ft | 459 kts | 311° |
| 2026-04-24 12:34 | 40.91335 | 22.20346 | 32090 ft | 459 kts | 311° |
| 2026-04-24 12:35 | 40.93256 | 22.16980 | 32353 ft | 458 kts | 311° |
| 2026-04-24 12:35 | 40.95171 | 22.13624 | 32625 ft | 457 kts | 311° |
| 2026-04-24 12:35 | 40.97086 | 22.10273 | 32868 ft | 456 kts | 311° |
| 2026-04-24 12:35 | 40.98997 | 22.06924 | 33142 ft | 455 kts | 311° |
| 2026-04-24 12:36 | 41.00903 | 22.03583 | 33409 ft | 454 kts | 311° |
| 2026-04-24 12:36 | 41.02806 | 22.00246 | 33682 ft | 454 kts | 311° |
| 2026-04-24 12:36 | 41.04702 | 21.96911 | 33964 ft | 453 kts | 311° |
| 2026-04-24 12:36 | 41.06590 | 21.93580 | 34209 ft | 452 kts | 311° |
| 2026-04-24 12:37 | 41.08354 | 21.90122 | 34431 ft | 455 kts | 304° |
| 2026-04-24 12:37 | 41.09937 | 21.86489 | 34614 ft | 455 kts | 304° |
| 2026-04-24 12:37 | 41.11524 | 21.82855 | 34789 ft | 455 kts | 304° |
| 2026-04-24 12:37 | 41.13113 | 21.79220 | 34976 ft | 455 kts | 304° |
| 2026-04-24 12:38 | 41.14698 | 21.75585 | 35161 ft | 455 kts | 304° |
| 2026-04-24 12:38 | 41.16279 | 21.71947 | 35338 ft | 455 kts | 304° |
| 2026-04-24 12:38 | 41.17858 | 21.68312 | 35533 ft | 454 kts | 304° |
| 2026-04-24 12:39 | 41.22587 | 21.57427 | 36010 ft | 454 kts | 304° |
| 2026-04-24 12:39 | 41.24166 | 21.53788 | 36024 ft | 456 kts | 304° |
| 2026-04-24 12:40 | 41.27321 | 21.46477 | 36022 ft | 456 kts | 303° |
| 2026-04-24 12:40 | 41.30472 | 21.39150 | 36022 ft | 456 kts | 303° |
| 2026-04-24 12:41 | 41.33624 | 21.31820 | 36021 ft | 456 kts | 303° |
| 2026-04-24 12:41 | 41.36769 | 21.24481 | 36013 ft | 457 kts | 303° |
| 2026-04-24 12:42 | 41.39919 | 21.17109 | 36012 ft | 461 kts | 303° |
| 2026-04-24 12:42 | 41.43091 | 21.09662 | 36016 ft | 463 kts | 303° |
| 2026-04-24 12:43 | 41.46262 | 21.02177 | 36010 ft | 464 kts | 303° |
| 2026-04-24 12:43 | 41.49443 | 20.94676 | 36009 ft | 465 kts | 303° |
| 2026-04-24 12:44 | 41.52634 | 20.87169 | 36010 ft | 465 kts | 303° |
| 2026-04-24 12:44 | 41.55814 | 20.79642 | 35991 ft | 465 kts | 303° |
| 2026-04-24 12:45 | 41.58983 | 20.72107 | 35999 ft | 466 kts | 303° |
| 2026-04-24 12:45 | 41.62157 | 20.64558 | 36012 ft | 466 kts | 303° |
| 2026-04-24 12:46 | 41.65336 | 20.57018 | 36012 ft | 465 kts | 306° |
| 2026-04-24 12:46 | 41.69418 | 20.50495 | 36009 ft | 453 kts | 324° |
| 2026-04-24 12:47 | 41.74343 | 20.45275 | 36009 ft | 452 kts | 326° |
| 2026-04-24 12:47 | 41.79272 | 20.40042 | 35999 ft | 452 kts | 326° |
| 2026-04-24 12:48 | 41.84208 | 20.34808 | 36011 ft | 453 kts | 326° |
| 2026-04-24 12:48 | 41.89153 | 20.29571 | 36017 ft | 453 kts | 326° |
| 2026-04-24 12:49 | 41.94094 | 20.24317 | 36025 ft | 453 kts | 326° |
| 2026-04-24 12:49 | 41.99029 | 20.19050 | 36022 ft | 453 kts | 326° |
| 2026-04-24 12:50 | 42.03969 | 20.13781 | 36024 ft | 453 kts | 326° |
| 2026-04-24 12:50 | 42.08907 | 20.08503 | 36015 ft | 454 kts | 326° |
| 2026-04-24 12:51 | 42.13846 | 20.03211 | 36012 ft | 454 kts | 326° |
| 2026-04-24 12:51 | 42.18780 | 19.97903 | 36016 ft | 454 kts | 326° |
| 2026-04-24 12:52 | 42.23716 | 19.92590 | 36016 ft | 453 kts | 326° |
| 2026-04-24 12:52 | 42.28647 | 19.87282 | 36014 ft | 454 kts | 326° |
| 2026-04-24 12:53 | 42.33575 | 19.81958 | 36015 ft | 452 kts | 326° |
| 2026-04-24 12:53 | 42.38492 | 19.76637 | 36009 ft | 453 kts | 326° |
| 2026-04-24 12:54 | 42.43417 | 19.71299 | 36009 ft | 453 kts | 326° |
| 2026-04-24 12:54 | 42.48333 | 19.65958 | 36006 ft | 453 kts | 326° |
| 2026-04-24 12:55 | 42.53242 | 19.60607 | 36009 ft | 453 kts | 326° |
| 2026-04-24 12:55 | 42.58153 | 19.55229 | 36018 ft | 454 kts | 326° |
| 2026-04-24 12:56 | 42.63060 | 19.49848 | 36021 ft | 453 kts | 326° |
| 2026-04-24 12:56 | 42.67971 | 19.44463 | 36012 ft | 454 kts | 326° |
| 2026-04-24 12:57 | 42.72882 | 19.39065 | 36016 ft | 454 kts | 326° |
| 2026-04-24 12:57 | 42.77791 | 19.33651 | 36015 ft | 455 kts | 326° |
| 2026-04-24 12:58 | 42.82665 | 19.28257 | 36021 ft | 454 kts | 326° |
| 2026-04-24 12:58 | 42.87573 | 19.22816 | 36025 ft | 455 kts | 326° |
| 2026-04-24 12:59 | 42.92483 | 19.17374 | 36033 ft | 455 kts | 326° |
| 2026-04-24 12:59 | 42.97392 | 19.11926 | 36017 ft | 455 kts | 325° |
| 2026-04-24 13:00 | 43.02303 | 19.06461 | 36019 ft | 455 kts | 326° |
| 2026-04-24 13:00 | 43.07210 | 19.00970 | 36030 ft | 456 kts | 325° |
| 2026-04-24 13:01 | 43.12112 | 18.95458 | 36047 ft | 456 kts | 325° |
| 2026-04-24 13:01 | 43.17029 | 18.89959 | 36046 ft | 456 kts | 326° |
| 2026-04-24 13:02 | 43.21948 | 18.84456 | 36057 ft | 457 kts | 325° |
| 2026-04-24 13:02 | 43.26856 | 18.78913 | 36057 ft | 457 kts | 325° |
| 2026-04-24 13:03 | 43.31764 | 18.73361 | 36046 ft | 457 kts | 325° |
| 2026-04-24 13:03 | 43.36536 | 18.67552 | 36048 ft | 461 kts | 319° |
| 2026-04-24 13:04 | 43.41041 | 18.61273 | 36049 ft | 461 kts | 319° |
| 2026-04-24 13:04 | 43.45542 | 18.54977 | 36053 ft | 461 kts | 319° |
| 2026-04-24 13:05 | 43.50040 | 18.48674 | 36061 ft | 461 kts | 319° |
| 2026-04-24 13:05 | 43.54533 | 18.42369 | 36050 ft | 461 kts | 319° |
| 2026-04-24 13:06 | 43.59024 | 18.36052 | 36059 ft | 461 kts | 319° |
| 2026-04-24 13:06 | 43.63514 | 18.29724 | 36071 ft | 461 kts | 319° |
| 2026-04-24 13:07 | 43.68001 | 18.23385 | 36061 ft | 462 kts | 319° |
| 2026-04-24 13:07 | 43.72480 | 18.17021 | 36069 ft | 462 kts | 319° |
| 2026-04-24 13:08 | 43.76956 | 18.10660 | 36073 ft | 461 kts | 319° |
| 2026-04-24 13:08 | 43.81434 | 18.04296 | 36079 ft | 461 kts | 319° |
| 2026-04-24 13:09 | 43.88141 | 17.94738 | 36086 ft | 461 kts | 319° |
| 2026-04-24 13:09 | 43.92603 | 17.88347 | 36083 ft | 461 kts | 319° |
| 2026-04-24 13:10 | 43.97063 | 17.81944 | 36091 ft | 461 kts | 319° |
| 2026-04-24 13:10 | 44.01489 | 17.75571 | 36094 ft | 461 kts | 319° |
| 2026-04-24 13:11 | 44.05933 | 17.69164 | 36096 ft | 460 kts | 319° |
| 2026-04-24 13:11 | 44.10379 | 17.62746 | 36088 ft | 461 kts | 319° |
| 2026-04-24 13:12 | 44.14823 | 17.56322 | 36093 ft | 461 kts | 319° |
| 2026-04-24 13:12 | 44.19261 | 17.49886 | 36099 ft | 461 kts | 318° |
| 2026-04-24 13:13 | 44.23691 | 17.43436 | 36092 ft | 460 kts | 318° |
| 2026-04-24 13:13 | 44.28113 | 17.36977 | 36094 ft | 460 kts | 318° |
| 2026-04-24 13:14 | 44.32528 | 17.30522 | 36100 ft | 460 kts | 318° |
| 2026-04-24 13:14 | 44.36194 | 17.25149 | 36105 ft | 459 kts | 318° |
| 2026-04-24 13:15 | 44.40601 | 17.18682 | 36104 ft | 459 kts | 318° |
| 2026-04-24 13:15 | 44.45006 | 17.12209 | 36103 ft | 459 kts | 318° |
| 2026-04-24 13:16 | 44.49406 | 17.05715 | 36090 ft | 460 kts | 318° |
| 2026-04-24 13:16 | 44.53802 | 16.99212 | 36101 ft | 460 kts | 318° |
| 2026-04-24 13:17 | 44.58194 | 16.92698 | 36105 ft | 460 kts | 318° |
| 2026-04-24 13:17 | 44.62519 | 16.86080 | 36105 ft | 461 kts | 316° |
| 2026-04-24 13:18 | 44.66725 | 16.79288 | 36094 ft | 461 kts | 315° |
| 2026-04-24 13:18 | 44.70908 | 16.72460 | 36096 ft | 461 kts | 315° |
| 2026-04-24 13:19 | 44.75115 | 16.65651 | 36093 ft | 461 kts | 316° |
| 2026-04-24 13:19 | 44.79329 | 16.58871 | 36097 ft | 460 kts | 316° |
| 2026-04-24 13:20 | 44.83539 | 16.52091 | 36085 ft | 460 kts | 316° |
| 2026-04-24 13:20 | 44.87737 | 16.45292 | 36087 ft | 460 kts | 315° |
| 2026-04-24 13:21 | 44.91928 | 16.38479 | 36090 ft | 460 kts | 315° |
| 2026-04-24 13:21 | 44.96118 | 16.31657 | 36081 ft | 460 kts | 315° |
| 2026-04-24 13:22 | 45.00306 | 16.24820 | 36065 ft | 460 kts | 315° |
| 2026-04-24 13:22 | 45.04492 | 16.17974 | 36081 ft | 460 kts | 315° |
| 2026-04-24 13:23 | 45.08674 | 16.11125 | 36090 ft | 460 kts | 315° |
| 2026-04-24 13:23 | 45.12852 | 16.04258 | 36095 ft | 460 kts | 315° |
| 2026-04-24 13:24 | 45.17020 | 15.97377 | 36093 ft | 460 kts | 315° |
| 2026-04-24 13:24 | 45.21183 | 15.90484 | 36080 ft | 460 kts | 315° |
| 2026-04-24 13:25 | 45.25348 | 15.83587 | 36084 ft | 460 kts | 315° |
| 2026-04-24 13:25 | 45.29507 | 15.76684 | 36086 ft | 460 kts | 315° |
| 2026-04-24 13:26 | 45.33659 | 15.69782 | 36084 ft | 459 kts | 315° |
| 2026-04-24 13:26 | 45.37801 | 15.62873 | 36074 ft | 459 kts | 315° |
| 2026-04-24 13:27 | 45.41936 | 15.55958 | 36080 ft | 459 kts | 315° |
| 2026-04-24 13:27 | 45.46066 | 15.49029 | 36081 ft | 459 kts | 315° |
| 2026-04-24 13:28 | 45.50163 | 15.42144 | 36081 ft | 459 kts | 315° |
| 2026-04-24 13:28 | 45.54290 | 15.35195 | 36084 ft | 459 kts | 315° |
| 2026-04-24 13:29 | 45.58388 | 15.28218 | 36073 ft | 459 kts | 313° |
| 2026-04-24 13:29 | 45.62301 | 15.21005 | 36076 ft | 460 kts | 311° |
| 2026-04-24 13:30 | 45.66102 | 15.13648 | 36073 ft | 460 kts | 311° |
| 2026-04-24 13:30 | 45.69923 | 15.06311 | 36077 ft | 460 kts | 311° |
| 2026-04-24 13:31 | 45.73783 | 14.99019 | 36058 ft | 459 kts | 311° |
| 2026-04-24 13:31 | 45.77643 | 14.91730 | 36051 ft | 459 kts | 311° |
| 2026-04-24 13:32 | 45.81489 | 14.84429 | 36064 ft | 459 kts | 311° |
| 2026-04-24 13:32 | 45.85322 | 14.77107 | 36061 ft | 459 kts | 311° |
| 2026-04-24 13:33 | 45.89151 | 14.69769 | 36056 ft | 459 kts | 311° |
| 2026-04-24 13:33 | 45.92974 | 14.62424 | 36062 ft | 459 kts | 311° |
| 2026-04-24 13:34 | 45.96801 | 14.55066 | 36065 ft | 460 kts | 311° |
| 2026-04-24 13:34 | 46.00600 | 14.47751 | 36075 ft | 460 kts | 311° |
| 2026-04-24 13:35 | 46.04422 | 14.40372 | 36064 ft | 460 kts | 311° |
| 2026-04-24 13:35 | 46.08230 | 14.32990 | 36072 ft | 459 kts | 310° |
| 2026-04-24 13:36 | 46.12030 | 14.25610 | 36059 ft | 458 kts | 310° |
| 2026-04-24 13:36 | 46.15819 | 14.18224 | 36060 ft | 458 kts | 310° |
| 2026-04-24 13:37 | 46.19602 | 14.10823 | 36072 ft | 458 kts | 310° |
| 2026-04-24 13:37 | 46.21488 | 14.07123 | 36196 ft | 456 kts | 310° |
| 2026-04-24 13:37 | 46.23354 | 14.03463 | 36580 ft | 448 kts | 310° |
| 2026-04-24 13:38 | 46.25186 | 13.99865 | 37073 ft | 441 kts | 310° |
| 2026-04-24 13:38 | 46.26987 | 13.96321 | 37524 ft | 434 kts | 310° |
| 2026-04-24 13:38 | 46.28769 | 13.92817 | 37826 ft | 431 kts | 310° |
| 2026-04-24 13:38 | 46.30543 | 13.89329 | 38029 ft | 430 kts | 310° |
| 2026-04-24 13:39 | 46.34112 | 13.82306 | 38068 ft | 437 kts | 310° |
| 2026-04-24 13:39 | 46.37727 | 13.75155 | 38054 ft | 443 kts | 310° |
| 2026-04-24 13:40 | 46.41368 | 13.67920 | 38063 ft | 446 kts | 310° |
| 2026-04-24 13:40 | 46.45031 | 13.60631 | 38067 ft | 449 kts | 310° |
| 2026-04-24 13:41 | 46.48713 | 13.53294 | 38066 ft | 450 kts | 310° |
| 2026-04-24 13:41 | 46.52372 | 13.45986 | 38066 ft | 451 kts | 310° |
| 2026-04-24 13:42 | 46.56080 | 13.38645 | 38060 ft | 449 kts | 314° |
| 2026-04-24 13:42 | 46.60489 | 13.32298 | 38075 ft | 446 kts | 320° |
| 2026-04-24 13:43 | 46.64985 | 13.26123 | 38082 ft | 445 kts | 320° |
| 2026-04-24 13:43 | 46.69494 | 13.19908 | 38084 ft | 445 kts | 320° |
| 2026-04-24 13:44 | 46.73985 | 13.13702 | 38085 ft | 445 kts | 320° |
| 2026-04-24 13:44 | 46.78471 | 13.07492 | 38079 ft | 444 kts | 320° |
| 2026-04-24 13:45 | 46.82949 | 13.01269 | 38086 ft | 444 kts | 320° |
| 2026-04-24 13:45 | 46.87419 | 12.95031 | 38097 ft | 444 kts | 320° |
| 2026-04-24 13:46 | 46.91883 | 12.88811 | 38104 ft | 443 kts | 320° |
| 2026-04-24 13:46 | 46.96340 | 12.82579 | 38111 ft | 443 kts | 319° |
| 2026-04-24 13:47 | 47.00794 | 12.76348 | 38110 ft | 443 kts | 319° |
| 2026-04-24 13:47 | 47.05239 | 12.70107 | 38118 ft | 442 kts | 319° |
| 2026-04-24 13:48 | 47.09680 | 12.63857 | 38112 ft | 443 kts | 319° |
| 2026-04-24 13:48 | 47.14077 | 12.57631 | 38111 ft | 431 kts | 319° |
| 2026-04-24 13:49 | 47.18343 | 12.51580 | 38115 ft | 424 kts | 319° |
| 2026-04-24 13:49 | 47.20465 | 12.48567 | 37992 ft | 425 kts | 319° |
| 2026-04-24 13:49 | 47.22589 | 12.45555 | 37695 ft | 424 kts | 318° |
| 2026-04-24 13:50 | 47.24720 | 12.42536 | 37422 ft | 426 kts | 318° |
| 2026-04-24 13:50 | 47.26853 | 12.39514 | 37154 ft | 426 kts | 318° |
| 2026-04-24 13:50 | 47.28990 | 12.36477 | 36887 ft | 427 kts | 318° |
| 2026-04-24 13:50 | 47.31126 | 12.33431 | 36624 ft | 428 kts | 318° |
| 2026-04-24 13:51 | 47.33268 | 12.30367 | 36368 ft | 429 kts | 318° |
| 2026-04-24 13:51 | 47.35403 | 12.27303 | 36102 ft | 427 kts | 318° |
| 2026-04-24 13:51 | 47.37521 | 12.24261 | 35620 ft | 423 kts | 318° |
| 2026-04-24 13:51 | 47.39628 | 12.21245 | 35118 ft | 420 kts | 318° |
| 2026-04-24 13:52 | 47.41718 | 12.18255 | 34612 ft | 417 kts | 318° |
| 2026-04-24 13:52 | 47.43797 | 12.15278 | 34103 ft | 415 kts | 318° |
| 2026-04-24 13:52 | 47.45860 | 12.12314 | 33555 ft | 412 kts | 318° |
| 2026-04-24 13:52 | 47.47906 | 12.09367 | 33076 ft | 409 kts | 318° |
| 2026-04-24 13:53 | 47.49933 | 12.06441 | 32584 ft | 406 kts | 318° |
| 2026-04-24 13:53 | 47.51836 | 12.03372 | 32104 ft | 405 kts | 310° |
| 2026-04-24 13:53 | 47.53347 | 11.99860 | 31620 ft | 405 kts | 300° |
| 2026-04-24 13:53 | 47.54411 | 11.95993 | 31133 ft | 407 kts | 289° |
| 2026-04-24 13:54 | 47.55043 | 11.91912 | 30654 ft | 406 kts | 284° |
| 2026-04-24 13:54 | 47.55607 | 11.87833 | 30187 ft | 404 kts | 284° |
| 2026-04-24 13:54 | 47.56176 | 11.83769 | 29675 ft | 401 kts | 285° |
| 2026-04-24 13:54 | 47.56741 | 11.79748 | 29231 ft | 398 kts | 284° |
| 2026-04-24 13:55 | 47.57302 | 11.75758 | 28786 ft | 394 kts | 284° |
| 2026-04-24 13:55 | 47.57856 | 11.71800 | 28364 ft | 391 kts | 284° |
| 2026-04-24 13:55 | 47.58399 | 11.67883 | 27931 ft | 386 kts | 284° |
| 2026-04-24 13:55 | 47.58934 | 11.63999 | 27493 ft | 383 kts | 284° |
| 2026-04-24 13:56 | 47.59464 | 11.60143 | 27057 ft | 381 kts | 284° |
| 2026-04-24 13:56 | 47.59983 | 11.56364 | 26627 ft | 378 kts | 284° |
| 2026-04-24 13:56 | 47.60507 | 11.52557 | 26183 ft | 376 kts | 284° |
| 2026-04-24 13:56 | 47.61027 | 11.48773 | 25737 ft | 374 kts | 284° |
| 2026-04-24 13:57 | 47.61541 | 11.45002 | 25294 ft | 373 kts | 284° |
| 2026-04-24 13:57 | 47.62052 | 11.41246 | 24834 ft | 371 kts | 284° |
| 2026-04-24 13:57 | 47.62557 | 11.37503 | 24358 ft | 370 kts | 284° |
| 2026-04-24 13:57 | 47.63029 | 11.33758 | 23897 ft | 370 kts | 283° |
| 2026-04-24 13:58 | 47.63479 | 11.30004 | 23375 ft | 370 kts | 283° |
| 2026-04-24 13:58 | 47.63921 | 11.26257 | 22909 ft | 368 kts | 283° |
| 2026-04-24 13:58 | 47.64357 | 11.22534 | 22447 ft | 365 kts | 283° |
| 2026-04-24 13:58 | 47.64795 | 11.18832 | 21986 ft | 364 kts | 283° |
| 2026-04-24 13:59 | 47.65085 | 11.16393 | 21690 ft | 362 kts | 283° |
| 2026-04-24 13:59 | 47.65673 | 11.11488 | 21102 ft | 360 kts | 282° |
| 2026-04-24 13:59 | 47.66111 | 11.07842 | 20659 ft | 358 kts | 282° |
| 2026-04-24 13:59 | 47.66546 | 11.04209 | 20216 ft | 357 kts | 282° |
| 2026-04-24 14:00 | 47.66979 | 11.00589 | 19779 ft | 356 kts | 282° |
| 2026-04-24 14:00 | 47.67410 | 10.96973 | 19352 ft | 355 kts | 282° |
| 2026-04-24 14:00 | 47.67838 | 10.93374 | 18925 ft | 354 kts | 282° |
| 2026-04-24 14:00 | 47.68263 | 10.89782 | 18494 ft | 353 kts | 282° |
| 2026-04-24 14:01 | 47.68685 | 10.86201 | 18005 ft | 352 kts | 282° |
| 2026-04-24 14:01 | 47.69100 | 10.82639 | 17590 ft | 349 kts | 282° |
| 2026-04-24 14:01 | 47.69372 | 10.80294 | 17324 ft | 347 kts | 282° |
| 2026-04-24 14:01 | 47.69782 | 10.76775 | 16907 ft | 345 kts | 282° |
| 2026-04-24 14:02 | 47.70191 | 10.73279 | 16500 ft | 343 kts | 282° |
| 2026-04-24 14:02 | 47.70597 | 10.69799 | 16093 ft | 341 kts | 282° |
| 2026-04-24 14:02 | 47.71000 | 10.66341 | 15687 ft | 339 kts | 282° |
| 2026-04-24 14:02 | 47.71397 | 10.62930 | 15283 ft | 329 kts | 282° |
| 2026-04-24 14:03 | 47.71774 | 10.59650 | 14902 ft | 316 kts | 282° |
| 2026-04-24 14:03 | 47.72134 | 10.56493 | 14532 ft | 305 kts | 282° |
| 2026-04-24 14:03 | 47.72488 | 10.53388 | 14162 ft | 306 kts | 282° |
| 2026-04-24 14:03 | 47.72841 | 10.50273 | 13775 ft | 306 kts | 282° |
| 2026-04-24 14:04 | 47.73194 | 10.47159 | 13392 ft | 305 kts | 282° |
| 2026-04-24 14:04 | 47.73547 | 10.44057 | 13018 ft | 304 kts | 282° |
| 2026-04-24 14:04 | 47.73910 | 10.40966 | 12636 ft | 303 kts | 284° |
| 2026-04-24 14:04 | 47.74679 | 10.38100 | 12253 ft | 298 kts | 304° |
| 2026-04-24 14:05 | 47.76044 | 10.35839 | 11885 ft | 294 kts | 323° |
| 2026-04-24 14:05 | 47.77833 | 10.34408 | 11478 ft | 293 kts | 342° |
| 2026-04-24 14:05 | 47.79828 | 10.33834 | 11083 ft | 292 kts | 351° |
| 2026-04-24 14:05 | 47.81842 | 10.33403 | 10669 ft | 293 kts | 351° |
| 2026-04-24 14:06 | 47.83842 | 10.32972 | 10417 ft | 287 kts | 351° |
| 2026-04-24 14:06 | 47.85817 | 10.32546 | 9989 ft | 284 kts | 351° |
| 2026-04-24 14:06 | 47.87767 | 10.32293 | 9313 ft | 281 kts | 3° |
| 2026-04-24 14:06 | 47.89635 | 10.32955 | 8840 ft | 274 kts | 22° |
| 2026-04-24 14:07 | 47.91226 | 10.34500 | 8423 ft | 276 kts | 43° |
| 2026-04-24 14:07 | 47.92392 | 10.36771 | 8012 ft | 278 kts | 58° |
| 2026-04-24 14:07 | 47.93378 | 10.39264 | 7559 ft | 281 kts | 58° |
| 2026-04-24 14:07 | 47.94371 | 10.41788 | 7088 ft | 284 kts | 58° |
| 2026-04-24 14:08 | 47.95374 | 10.44340 | 6604 ft | 287 kts | 59° |
| 2026-04-24 14:08 | 47.96382 | 10.46901 | 6104 ft | 284 kts | 58° |
| 2026-04-24 14:08 | 47.97362 | 10.49354 | 5822 ft | 265 kts | 53° |
| 2026-04-24 14:08 | 47.98626 | 10.51164 | 5570 ft | 243 kts | 26° |
| 2026-04-24 14:09 | 48.00152 | 10.51952 | 5315 ft | 225 kts | 4° |
| 2026-04-24 14:09 | 48.01661 | 10.51806 | 5084 ft | 213 kts | 342° |
| 2026-04-24 14:09 | 48.02942 | 10.50915 | 5018 ft | 195 kts | 328° |
| 2026-04-24 14:09 | 48.04045 | 10.49940 | 5014 ft | 176 kts | 328° |
| 2026-04-24 14:10 | 48.05062 | 10.49051 | 4993 ft | 163 kts | 328° |
| 2026-04-24 14:10 | 48.05925 | 10.48065 | 4977 ft | 153 kts | 311° |
| 2026-04-24 14:10 | 48.06523 | 10.46682 | 5013 ft | 164 kts | 293° |
| 2026-04-24 14:10 | 48.06749 | 10.45008 | 4927 ft | 166 kts | 271° |
| 2026-04-24 14:11 | 48.06515 | 10.43313 | 4780 ft | 169 kts | 248° |
| 2026-04-24 14:11 | 48.05932 | 10.41779 | 4582 ft | 170 kts | 241° |
| 2026-04-24 14:11 | 48.04739 | 10.38763 | 4126 ft | 162 kts | 242° |
| 2026-04-24 14:12 | 48.04190 | 10.37373 | 3917 ft | 151 kts | 243° |
| 2026-04-24 14:12 | 48.03664 | 10.36040 | 3721 ft | 148 kts | 243° |
| 2026-04-24 14:12 | 48.03142 | 10.34719 | 3541 ft | 147 kts | 244° |
| 2026-04-24 14:12 | 48.02628 | 10.33416 | 3345 ft | 145 kts | 244° |
| 2026-04-24 14:13 | 48.02115 | 10.32118 | 3130 ft | 145 kts | 243° |
| 2026-04-24 14:13 | 48.01595 | 10.30824 | 2905 ft | 145 kts | 242° |
| 2026-04-24 14:13 | 48.01077 | 10.29536 | 2683 ft | 146 kts | 242° |
| 2026-04-24 14:13 | 48.00576 | 10.28219 | 2499 ft | 146 kts | 243° |
| 2026-04-24 14:14 | 48.00049 | 10.26927 | 2301 ft | 145 kts | 243° |
| 2026-04-24 14:14 | 47.99549 | 10.25631 | 2143 ft | 143 kts | 242° |
| 2026-04-24 14:14 | 47.98662 | 10.23405 | 2076 ft | 86 kts | 239° |
| 2026-04-24 14:15 | 47.98447 | 10.22856 | 2084 ft | 37 kts | 239° |
| 2026-04-24 14:15 | 47.98371 | 10.22670 | 2087 ft | 13 kts | 240° |
| 2026-04-24 14:15 | 47.98374 | 10.22562 | 2088 ft | 12 kts | 328° |
| 2026-04-24 14:15 | 47.98449 | 10.22577 | 2085 ft | 14 kts | 59° |
| 2026-04-24 14:16 | 47.98508 | 10.22696 | 2083 ft | 15 kts | 33° |
| 2026-04-24 14:16 | 47.98609 | 10.22714 | 2080 ft | 14 kts | 360° |
| 2026-04-24 14:16 | 47.98692 | 10.22745 | 2077 ft | 14 kts | 58° |
| 2026-04-24 14:17 | 47.98752 | 10.22965 | 2078 ft | 9 kts | 55° |
| 2026-04-24 14:17 | 47.98769 | 10.23037 | 2079 ft | 6 kts | 71° |
| 2026-04-24 14:17 | 47.98801 | 10.23174 | 2080 ft | 10 kts | 70° |
| 2026-04-24 14:18 | 47.98858 | 10.23222 | 2080 ft | 8 kts | 38° |
| 2026-04-24 14:18 | 47.98865 | 10.23234 | 2076 ft | 1 kts | 49° |
| 2026-04-24 14:18 | 47.98868 | 10.23239 | 2077 ft | 0 kts | 49° |